CheckWX is a tool to help pilots better visualize weather data.  It is not intended as a substitute for an official pre-flight weather briefing.

03:41:19 UTC

KAFO METAR
Afton Municipal Airport
Afton, Wyoming, USA
Current

26 mins ago

KAFO 260315Z AUTO 16003KT 10SM VCTS SCT060 BKN075 OVC085 07/04 A2994 RMK AO2
Observed
May-26 @ 03:15 UTC
Wind
  • 160° at 3 KTS
Visibility
10 SM
Flight Rules
VFR
Conditions
Area Thunderstorm
Cloud Levels
  • Scattered at 6,000' AGL
  • Broken at 7,500' AGL
  • Overcast at 8,500' AGL
Temperature
C / 45°F
Dewpoint
C / 39°F
Humidity
81%
Altimeter
29.94" Hg
Pressure
1013.92 hPa
Previous

46 mins ago

KAFO 260255Z AUTO 00000KT 10SM BKN075 BKN085 08/04 A2994 RMK AO2 LTG DSNT NW
Observed
May-26 @ 02:55 UTC
Visibility
10 SM
Flight Rules
VFR
Cloud Levels
  • Broken at 7,500' AGL
  • Broken at 8,500' AGL
Temperature
C / 46°F
Dewpoint
C / 39°F
Humidity
76%
Altimeter
29.94" Hg
Pressure
1013.92 hPa
Previous

1 hour ago

KAFO 260235Z AUTO 00000KT 10SM CLR 09/03 A2993 RMK AO2
Observed
May-26 @ 02:35 UTC
Visibility
10 SM
Flight Rules
VFR
Cloud Levels
  • Clear skies
Temperature
C / 48°F
Dewpoint
C / 37°F
Humidity
66%
Altimeter
29.93" Hg
Pressure
1013.52 hPa